sensor_id;sensor_type;location;lat;lon;timestamp;P1;durP1;ratioP1;P2;durP2;ratioP2
52948;SDS011;38812;50.942;3.644;2023-07-31T00:00:11;17.65;;;5.15;;
52948;SDS011;38812;50.942;3.644;2023-07-31T00:02:37;16.50;;;5.22;;
52948;SDS011;38812;50.942;3.644;2023-07-31T00:05:03;13.55;;;5.25;;
52948;SDS011;38812;50.942;3.644;2023-07-31T00:07:28;17.63;;;6.15;;
52948;SDS011;38812;50.942;3.644;2023-07-31T00:09:54;18.20;;;6.13;;
52948;SDS011;38812;50.942;3.644;2023-07-31T00:12:19;15.68;;;5.75;;
52948;SDS011;38812;50.942;3.644;2023-07-31T00:14:45;18.80;;;5.65;;
52948;SDS011;38812;50.942;3.644;2023-07-31T00:17:11;21.42;;;5.75;;
52948;SDS011;38812;50.942;3.644;2023-07-31T00:19:36;16.88;;;5.28;;
52948;SDS011;38812;50.942;3.644;2023-07-31T00:22:02;20.23;;;5.75;;
52948;SDS011;38812;50.942;3.644;2023-07-31T00:24:27;20.13;;;4.65;;
52948;SDS011;38812;50.942;3.644;2023-07-31T00:26:52;12.23;;;5.13;;
52948;SDS011;38812;50.942;3.644;2023-07-31T00:29:18;19.38;;;4.80;;
52948;SDS011;38812;50.942;3.644;2023-07-31T00:31:43;22.98;;;4.82;;
52948;SDS011;38812;50.942;3.644;2023-07-31T00:34:09;20.88;;;4.97;;
52948;SDS011;38812;50.942;3.644;2023-07-31T00:36:34;20.60;;;5.43;;
52948;SDS011;38812;50.942;3.644;2023-07-31T00:39:00;16.95;;;4.85;;
52948;SDS011;38812;50.942;3.644;2023-07-31T00:41:25;22.77;;;5.18;;
52948;SDS011;38812;50.942;3.644;2023-07-31T00:43:50;15.82;;;4.70;;
52948;SDS011;38812;50.942;3.644;2023-07-31T00:46:16;15.20;;;5.30;;
52948;SDS011;38812;50.942;3.644;2023-07-31T00:48:41;18.45;;;4.95;;
52948;SDS011;38812;50.942;3.644;2023-07-31T00:51:08;14.75;;;4.95;;
52948;SDS011;38812;50.942;3.644;2023-07-31T00:53:33;17.88;;;5.10;;
52948;SDS011;38812;50.942;3.644;2023-07-31T00:55:59;21.58;;;4.68;;
52948;SDS011;38812;50.942;3.644;2023-07-31T00:58:25;17.05;;;5.60;;
52948;SDS011;38812;50.942;3.644;2023-07-31T01:00:50;15.38;;;4.75;;
52948;SDS011;38812;50.942;3.644;2023-07-31T01:03:16;20.75;;;5.28;;
52948;SDS011;38812;50.942;3.644;2023-07-31T01:08:33;15.70;;;4.65;;
52948;SDS011;38812;50.942;3.644;2023-07-31T01:11:12;15.55;;;5.72;;
52948;SDS011;38812;50.942;3.644;2023-07-31T01:13:41;19.17;;;6.13;;
52948;SDS011;38812;50.942;3.644;2023-07-31T01:16:07;11.77;;;3.97;;
52948;SDS011;38812;50.942;3.644;2023-07-31T01:18:33;12.07;;;3.97;;
52948;SDS011;38812;50.942;3.644;2023-07-31T01:21:03;13.57;;;4.38;;
52948;SDS011;38812;50.942;3.644;2023-07-31T01:26:18;18.08;;;4.22;;
52948;SDS011;38812;50.942;3.644;2023-07-31T01:31:32;12.13;;;3.90;;
52948;SDS011;38812;50.942;3.644;2023-07-31T01:34:00;16.05;;;4.22;;
52948;SDS011;38812;50.942;3.644;2023-07-31T01:36:26;15.77;;;4.53;;
52948;SDS011;38812;50.942;3.644;2023-07-31T01:38:54;16.25;;;4.40;;
52948;SDS011;38812;50.942;3.644;2023-07-31T01:41:23;16.35;;;4.47;;
52948;SDS011;38812;50.942;3.644;2023-07-31T01:43:48;15.70;;;4.82;;
52948;SDS011;38812;50.942;3.644;2023-07-31T01:46:14;17.25;;;4.43;;
52948;SDS011;38812;50.942;3.644;2023-07-31T01:48:39;14.27;;;4.63;;
52948;SDS011;38812;50.942;3.644;2023-07-31T01:51:04;13.60;;;4.82;;
52948;SDS011;38812;50.942;3.644;2023-07-31T01:53:31;18.27;;;8.10;;
52948;SDS011;38812;50.942;3.644;2023-07-31T01:55:56;12.55;;;3.90;;
52948;SDS011;38812;50.942;3.644;2023-07-31T01:58:22;17.83;;;4.43;;
52948;SDS011;38812;50.942;3.644;2023-07-31T02:00:47;11.77;;;3.92;;
52948;SDS011;38812;50.942;3.644;2023-07-31T02:03:12;19.58;;;4.45;;
52948;SDS011;38812;50.942;3.644;2023-07-31T02:05:44;17.65;;;4.22;;
52948;SDS011;38812;50.942;3.644;2023-07-31T02:08:10;18.60;;;4.85;;
52948;SDS011;38812;50.942;3.644;2023-07-31T02:10:36;24.65;;;8.52;;
52948;SDS011;38812;50.942;3.644;2023-07-31T02:13:01;42.55;;;21.13;;
52948;SDS011;38812;50.942;3.644;2023-07-31T02:15:28;18.63;;;6.85;;
52948;SDS011;38812;50.942;3.644;2023-07-31T02:17:57;15.13;;;4.65;;
52948;SDS011;38812;50.942;3.644;2023-07-31T02:20:22;15.60;;;4.93;;
52948;SDS011;38812;50.942;3.644;2023-07-31T02:22:48;17.95;;;4.55;;
52948;SDS011;38812;50.942;3.644;2023-07-31T02:25:13;15.50;;;4.25;;
52948;SDS011;38812;50.942;3.644;2023-07-31T02:27:39;15.50;;;4.43;;
52948;SDS011;38812;50.942;3.644;2023-07-31T02:30:04;11.82;;;4.45;;
52948;SDS011;38812;50.942;3.644;2023-07-31T02:32:30;12.48;;;4.20;;
52948;SDS011;38812;50.942;3.644;2023-07-31T02:34:56;12.20;;;3.95;;
52948;SDS011;38812;50.942;3.644;2023-07-31T02:37:21;13.57;;;4.15;;
52948;SDS011;38812;50.942;3.644;2023-07-31T02:39:47;17.70;;;4.80;;
52948;SDS011;38812;50.942;3.644;2023-07-31T02:42:12;18.75;;;4.63;;
52948;SDS011;38812;50.942;3.644;2023-07-31T02:44:38;19.00;;;4.28;;
52948;SDS011;38812;50.942;3.644;2023-07-31T02:47:04;18.05;;;5.10;;
52948;SDS011;38812;50.942;3.644;2023-07-31T02:49:29;17.83;;;5.03;;
52948;SDS011;38812;50.942;3.644;2023-07-31T02:51:55;10.23;;;3.95;;
52948;SDS011;38812;50.942;3.644;2023-07-31T02:54:20;17.55;;;5.03;;
52948;SDS011;38812;50.942;3.644;2023-07-31T02:56:47;20.42;;;4.97;;
52948;SDS011;38812;50.942;3.644;2023-07-31T02:59:13;15.07;;;5.20;;
52948;SDS011;38812;50.942;3.644;2023-07-31T03:01:38;10.63;;;4.25;;
52948;SDS011;38812;50.942;3.644;2023-07-31T03:04:03;12.23;;;5.05;;
52948;SDS011;38812;50.942;3.644;2023-07-31T03:06:29;15.73;;;4.85;;
52948;SDS011;38812;50.942;3.644;2023-07-31T03:08:54;17.80;;;6.72;;
52948;SDS011;38812;50.942;3.644;2023-07-31T03:11:20;13.93;;;5.22;;
52948;SDS011;38812;50.942;3.644;2023-07-31T03:13:45;13.73;;;4.57;;
52948;SDS011;38812;50.942;3.644;2023-07-31T03:16:11;11.13;;;4.55;;
52948;SDS011;38812;50.942;3.644;2023-07-31T03:18:36;16.15;;;5.25;;
52948;SDS011;38812;50.942;3.644;2023-07-31T03:21:01;18.27;;;5.88;;
52948;SDS011;38812;50.942;3.644;2023-07-31T03:23:27;15.30;;;5.57;;
52948;SDS011;38812;50.942;3.644;2023-07-31T03:25:59;15.48;;;4.82;;
52948;SDS011;38812;50.942;3.644;2023-07-31T03:28:26;9.73;;;4.75;;
52948;SDS011;38812;50.942;3.644;2023-07-31T03:30:52;13.60;;;5.65;;
52948;SDS011;38812;50.942;3.644;2023-07-31T03:33:18;10.65;;;4.45;;
52948;SDS011;38812;50.942;3.644;2023-07-31T03:35:43;12.95;;;5.15;;
52948;SDS011;38812;50.942;3.644;2023-07-31T03:38:09;14.63;;;5.10;;
52948;SDS011;38812;50.942;3.644;2023-07-31T03:40:34;14.98;;;5.10;;
52948;SDS011;38812;50.942;3.644;2023-07-31T03:43:00;13.98;;;4.85;;
52948;SDS011;38812;50.942;3.644;2023-07-31T03:45:25;17.80;;;5.18;;
52948;SDS011;38812;50.942;3.644;2023-07-31T03:47:51;15.55;;;5.28;;
52948;SDS011;38812;50.942;3.644;2023-07-31T03:50:16;16.65;;;5.30;;
52948;SDS011;38812;50.942;3.644;2023-07-31T03:52:42;15.57;;;4.60;;
52948;SDS011;38812;50.942;3.644;2023-07-31T03:55:07;20.17;;;4.82;;
52948;SDS011;38812;50.942;3.644;2023-07-31T03:57:33;16.30;;;5.88;;
52948;SDS011;38812;50.942;3.644;2023-07-31T03:59:58;13.75;;;4.57;;
52948;SDS011;38812;50.942;3.644;2023-07-31T04:02:24;10.10;;;4.03;;
52948;SDS011;38812;50.942;3.644;2023-07-31T04:04:49;14.93;;;4.32;;
52948;SDS011;38812;50.942;3.644;2023-07-31T04:07:14;11.40;;;3.97;;
52948;SDS011;38812;50.942;3.644;2023-07-31T04:09:40;12.75;;;3.60;;
52948;SDS011;38812;50.942;3.644;2023-07-31T04:12:07;9.50;;;3.90;;
52948;SDS011;38812;50.942;3.644;2023-07-31T04:14:32;8.45;;;4.85;;
52948;SDS011;38812;50.942;3.644;2023-07-31T04:16:58;7.72;;;3.95;;
52948;SDS011;38812;50.942;3.644;2023-07-31T04:19:23;13.95;;;4.05;;
52948;SDS011;38812;50.942;3.644;2023-07-31T04:21:49;13.05;;;4.07;;
52948;SDS011;38812;50.942;3.644;2023-07-31T04:24:14;11.48;;;4.18;;
52948;SDS011;38812;50.942;3.644;2023-07-31T04:26:40;13.05;;;5.00;;
52948;SDS011;38812;50.942;3.644;2023-07-31T04:29:05;13.77;;;4.55;;
52948;SDS011;38812;50.942;3.644;2023-07-31T04:31:31;13.35;;;4.40;;
52948;SDS011;38812;50.942;3.644;2023-07-31T04:33:56;7.25;;;4.38;;
52948;SDS011;38812;50.942;3.644;2023-07-31T04:36:21;12.73;;;4.38;;
52948;SDS011;38812;50.942;3.644;2023-07-31T04:38:47;11.45;;;4.32;;
52948;SDS011;38812;50.942;3.644;2023-07-31T04:41:12;11.63;;;4.55;;
52948;SDS011;38812;50.942;3.644;2023-07-31T04:43:37;8.48;;;4.78;;
52948;SDS011;38812;50.942;3.644;2023-07-31T04:46:04;13.10;;;5.15;;
52948;SDS011;38812;50.942;3.644;2023-07-31T04:48:30;14.13;;;4.57;;
52948;SDS011;38812;50.942;3.644;2023-07-31T04:50:55;9.18;;;4.53;;
52948;SDS011;38812;50.942;3.644;2023-07-31T04:53:21;11.85;;;4.55;;
52948;SDS011;38812;50.942;3.644;2023-07-31T04:55:46;12.27;;;4.68;;
52948;SDS011;38812;50.942;3.644;2023-07-31T04:58:12;12.15;;;4.55;;
52948;SDS011;38812;50.942;3.644;2023-07-31T05:00:37;10.27;;;3.80;;
52948;SDS011;38812;50.942;3.644;2023-07-31T05:03:02;12.57;;;5.65;;
52948;SDS011;38812;50.942;3.644;2023-07-31T05:05:28;8.05;;;3.92;;
52948;SDS011;38812;50.942;3.644;2023-07-31T05:07:53;9.77;;;4.22;;
52948;SDS011;38812;50.942;3.644;2023-07-31T05:10:18;10.85;;;4.38;;
52948;SDS011;38812;50.942;3.644;2023-07-31T05:12:44;9.88;;;4.57;;
52948;SDS011;38812;50.942;3.644;2023-07-31T05:15:09;10.90;;;3.78;;
52948;SDS011;38812;50.942;3.644;2023-07-31T05:17:35;14.23;;;4.28;;
52948;SDS011;38812;50.942;3.644;2023-07-31T05:20:00;10.32;;;3.95;;
52948;SDS011;38812;50.942;3.644;2023-07-31T05:22:26;7.70;;;3.60;;
52948;SDS011;38812;50.942;3.644;2023-07-31T05:24:51;8.05;;;4.32;;
52948;SDS011;38812;50.942;3.644;2023-07-31T05:27:16;12.00;;;4.20;;
52948;SDS011;38812;50.942;3.644;2023-07-31T05:29:43;10.52;;;3.90;;
52948;SDS011;38812;50.942;3.644;2023-07-31T05:32:09;9.25;;;3.75;;
52948;SDS011;38812;50.942;3.644;2023-07-31T05:34:34;7.10;;;3.83;;
52948;SDS011;38812;50.942;3.644;2023-07-31T05:37:00;7.05;;;3.95;;
52948;SDS011;38812;50.942;3.644;2023-07-31T05:39:25;11.07;;;4.20;;
52948;SDS011;38812;50.942;3.644;2023-07-31T05:41:50;5.65;;;3.33;;
52948;SDS011;38812;50.942;3.644;2023-07-31T05:44:16;15.95;;;3.95;;
52948;SDS011;38812;50.942;3.644;2023-07-31T05:46:41;10.68;;;4.22;;
52948;SDS011;38812;50.942;3.644;2023-07-31T05:49:07;7.00;;;3.47;;
52948;SDS011;38812;50.942;3.644;2023-07-31T05:51:32;10.95;;;3.65;;
52948;SDS011;38812;50.942;3.644;2023-07-31T05:53:57;7.30;;;3.63;;
52948;SDS011;38812;50.942;3.644;2023-07-31T05:56:23;10.40;;;4.30;;
52948;SDS011;38812;50.942;3.644;2023-07-31T05:58:48;7.70;;;3.13;;
52948;SDS011;38812;50.942;3.644;2023-07-31T06:01:15;8.35;;;3.50;;
52948;SDS011;38812;50.942;3.644;2023-07-31T06:03:42;10.50;;;4.30;;
52948;SDS011;38812;50.942;3.644;2023-07-31T06:06:07;8.00;;;3.70;;
52948;SDS011;38812;50.942;3.644;2023-07-31T06:08:33;6.20;;;3.47;;
52948;SDS011;38812;50.942;3.644;2023-07-31T06:10:58;7.95;;;4.15;;
52948;SDS011;38812;50.942;3.644;2023-07-31T06:13:24;8.77;;;3.95;;
52948;SDS011;38812;50.942;3.644;2023-07-31T06:15:49;8.57;;;3.30;;
52948;SDS011;38812;50.942;3.644;2023-07-31T06:18:14;9.00;;;3.42;;
52948;SDS011;38812;50.942;3.644;2023-07-31T06:20:40;12.13;;;3.65;;
52948;SDS011;38812;50.942;3.644;2023-07-31T06:23:05;7.57;;;3.15;;
52948;SDS011;38812;50.942;3.644;2023-07-31T06:25:31;10.45;;;3.25;;
52948;SDS011;38812;50.942;3.644;2023-07-31T06:27:56;12.38;;;4.18;;
52948;SDS011;38812;50.942;3.644;2023-07-31T06:30:22;10.85;;;3.78;;
52948;SDS011;38812;50.942;3.644;2023-07-31T06:32:47;9.82;;;4.25;;
52948;SDS011;38812;50.942;3.644;2023-07-31T06:35:13;9.18;;;3.80;;
52948;SDS011;38812;50.942;3.644;2023-07-31T06:37:38;9.48;;;3.63;;
52948;SDS011;38812;50.942;3.644;2023-07-31T06:40:09;7.35;;;3.17;;
52948;SDS011;38812;50.942;3.644;2023-07-31T06:42:35;9.73;;;3.40;;
52948;SDS011;38812;50.942;3.644;2023-07-31T06:45:00;5.60;;;3.42;;
52948;SDS011;38812;50.942;3.644;2023-07-31T06:47:26;6.32;;;3.53;;
52948;SDS011;38812;50.942;3.644;2023-07-31T06:49:52;7.15;;;3.38;;
52948;SDS011;38812;50.942;3.644;2023-07-31T06:52:19;11.88;;;3.47;;
52948;SDS011;38812;50.942;3.644;2023-07-31T06:57:25;6.93;;;2.75;;
52948;SDS011;38812;50.942;3.644;2023-07-31T06:59:51;10.07;;;3.13;;
52948;SDS011;38812;50.942;3.644;2023-07-31T07:02:16;8.95;;;3.17;;
52948;SDS011;38812;50.942;3.644;2023-07-31T07:04:41;7.93;;;3.13;;
52948;SDS011;38812;50.942;3.644;2023-07-31T07:07:07;6.88;;;2.95;;
52948;SDS011;38812;50.942;3.644;2023-07-31T07:09:32;8.70;;;3.40;;
52948;SDS011;38812;50.942;3.644;2023-07-31T07:11:58;9.68;;;2.92;;
52948;SDS011;38812;50.942;3.644;2023-07-31T07:14:23;9.68;;;2.92;;
52948;SDS011;38812;50.942;3.644;2023-07-31T07:16:50;6.80;;;3.08;;
52948;SDS011;38812;50.942;3.644;2023-07-31T07:19:16;10.65;;;3.30;;
52948;SDS011;38812;50.942;3.644;2023-07-31T07:21:42;7.65;;;3.15;;
52948;SDS011;38812;50.942;3.644;2023-07-31T07:24:07;8.75;;;2.75;;
52948;SDS011;38812;50.942;3.644;2023-07-31T07:26:32;6.03;;;2.80;;
52948;SDS011;38812;50.942;3.644;2023-07-31T07:28:58;6.15;;;3.00;;
52948;SDS011;38812;50.942;3.644;2023-07-31T07:31:26;9.80;;;3.22;;
52948;SDS011;38812;50.942;3.644;2023-07-31T07:33:51;9.15;;;2.90;;
52948;SDS011;38812;50.942;3.644;2023-07-31T07:36:17;6.07;;;2.67;;
52948;SDS011;38812;50.942;3.644;2023-07-31T07:38:42;8.38;;;3.35;;
52948;SDS011;38812;50.942;3.644;2023-07-31T07:41:07;15.38;;;4.00;;
52948;SDS011;38812;50.942;3.644;2023-07-31T07:43:33;11.60;;;4.75;;
52948;SDS011;38812;50.942;3.644;2023-07-31T07:45:58;6.95;;;2.67;;
52948;SDS011;38812;50.942;3.644;2023-07-31T07:48:23;6.10;;;2.83;;
52948;SDS011;38812;50.942;3.644;2023-07-31T07:50:50;11.77;;;3.58;;
52948;SDS011;38812;50.942;3.644;2023-07-31T07:53:15;6.93;;;2.45;;
52948;SDS011;38812;50.942;3.644;2023-07-31T07:55:41;4.70;;;2.40;;
52948;SDS011;38812;50.942;3.644;2023-07-31T07:58:06;9.50;;;3.25;;
52948;SDS011;38812;50.942;3.644;2023-07-31T08:00:33;4.85;;;2.40;;
52948;SDS011;38812;50.942;3.644;2023-07-31T08:02:58;4.93;;;2.40;;
52948;SDS011;38812;50.942;3.644;2023-07-31T08:05:23;9.25;;;2.70;;
52948;SDS011;38812;50.942;3.644;2023-07-31T08:07:49;4.65;;;2.35;;
52948;SDS011;38812;50.942;3.644;2023-07-31T08:10:14;6.25;;;2.25;;
52948;SDS011;38812;50.942;3.644;2023-07-31T08:12:39;7.15;;;2.67;;
52948;SDS011;38812;50.942;3.644;2023-07-31T08:15:05;10.20;;;3.17;;
52948;SDS011;38812;50.942;3.644;2023-07-31T08:17:31;8.48;;;2.35;;
52948;SDS011;38812;50.942;3.644;2023-07-31T08:19:56;7.57;;;2.50;;
52948;SDS011;38812;50.942;3.644;2023-07-31T08:22:23;2.85;;;2.08;;
52948;SDS011;38812;50.942;3.644;2023-07-31T08:24:49;5.88;;;2.72;;
52948;SDS011;38812;50.942;3.644;2023-07-31T08:27:14;4.32;;;2.28;;
52948;SDS011;38812;50.942;3.644;2023-07-31T08:29:39;7.30;;;3.00;;
52948;SDS011;38812;50.942;3.644;2023-07-31T08:32:05;6.00;;;2.22;;
52948;SDS011;38812;50.942;3.644;2023-07-31T08:34:31;3.50;;;2.47;;
52948;SDS011;38812;50.942;3.644;2023-07-31T08:36:56;3.92;;;2.33;;
52948;SDS011;38812;50.942;3.644;2023-07-31T08:39:21;3.80;;;2.03;;
52948;SDS011;38812;50.942;3.644;2023-07-31T08:41:47;3.53;;;2.05;;
52948;SDS011;38812;50.942;3.644;2023-07-31T08:44:12;7.20;;;2.45;;
52948;SDS011;38812;50.942;3.644;2023-07-31T08:46:40;3.63;;;2.28;;
52948;SDS011;38812;50.942;3.644;2023-07-31T08:49:06;5.35;;;2.65;;
52948;SDS011;38812;50.942;3.644;2023-07-31T08:51:35;9.27;;;3.10;;
52948;SDS011;38812;50.942;3.644;2023-07-31T08:54:02;5.90;;;2.45;;
52948;SDS011;38812;50.942;3.644;2023-07-31T08:56:29;5.93;;;2.40;;
52948;SDS011;38812;50.942;3.644;2023-07-31T08:58:56;7.93;;;3.28;;
52948;SDS011;38812;50.942;3.644;2023-07-31T09:01:23;6.93;;;2.78;;
52948;SDS011;38812;50.942;3.644;2023-07-31T09:03:49;6.05;;;2.85;;
52948;SDS011;38812;50.942;3.644;2023-07-31T09:06:16;7.25;;;2.63;;
52948;SDS011;38812;50.942;3.644;2023-07-31T09:08:45;3.95;;;2.13;;
52948;SDS011;38812;50.942;3.644;2023-07-31T09:11:11;3.85;;;2.58;;
52948;SDS011;38812;50.942;3.644;2023-07-31T09:13:37;5.20;;;2.97;;
52948;SDS011;38812;50.942;3.644;2023-07-31T09:16:05;6.68;;;3.13;;
52948;SDS011;38812;50.942;3.644;2023-07-31T09:18:30;6.35;;;3.22;;
52948;SDS011;38812;50.942;3.644;2023-07-31T09:21:02;4.50;;;2.75;;
52948;SDS011;38812;50.942;3.644;2023-07-31T09:23:43;6.55;;;3.22;;
52948;SDS011;38812;50.942;3.644;2023-07-31T09:26:10;7.95;;;3.03;;
52948;SDS011;38812;50.942;3.644;2023-07-31T09:28:36;7.00;;;3.17;;
52948;SDS011;38812;50.942;3.644;2023-07-31T09:31:01;9.68;;;3.13;;
52948;SDS011;38812;50.942;3.644;2023-07-31T09:33:27;10.02;;;4.88;;
52948;SDS011;38812;50.942;3.644;2023-07-31T09:35:52;6.35;;;3.90;;
52948;SDS011;38812;50.942;3.644;2023-07-31T09:38:18;8.43;;;3.33;;
52948;SDS011;38812;50.942;3.644;2023-07-31T09:40:47;8.73;;;3.72;;
52948;SDS011;38812;50.942;3.644;2023-07-31T09:43:19;10.70;;;4.00;;
52948;SDS011;38812;50.942;3.644;2023-07-31T09:45:46;6.07;;;3.47;;
52948;SDS011;38812;50.942;3.644;2023-07-31T09:48:13;13.38;;;4.65;;
52948;SDS011;38812;50.942;3.644;2023-07-31T09:50:41;10.95;;;3.60;;
52948;SDS011;38812;50.942;3.644;2023-07-31T09:53:09;11.48;;;4.55;;
52948;SDS011;38812;50.942;3.644;2023-07-31T09:55:35;9.57;;;3.95;;
52948;SDS011;38812;50.942;3.644;2023-07-31T09:58:05;8.45;;;4.05;;
52948;SDS011;38812;50.942;3.644;2023-07-31T10:00:35;12.77;;;4.53;;
52948;SDS011;38812;50.942;3.644;2023-07-31T10:03:02;8.98;;;4.47;;
52948;SDS011;38812;50.942;3.644;2023-07-31T10:08:10;5.93;;;3.60;;
52948;SDS011;38812;50.942;3.644;2023-07-31T10:10:42;8.68;;;3.60;;
52948;SDS011;38812;50.942;3.644;2023-07-31T10:13:08;8.50;;;4.07;;
52948;SDS011;38812;50.942;3.644;2023-07-31T10:15:35;7.47;;;3.47;;
52948;SDS011;38812;50.942;3.644;2023-07-31T10:18:01;11.15;;;3.88;;
52948;SDS011;38812;50.942;3.644;2023-07-31T10:20:27;6.93;;;4.18;;
52948;SDS011;38812;50.942;3.644;2023-07-31T10:22:57;8.75;;;3.70;;
52948;SDS011;38812;50.942;3.644;2023-07-31T10:25:23;10.45;;;3.65;;
52948;SDS011;38812;50.942;3.644;2023-07-31T10:27:49;11.10;;;3.92;;
52948;SDS011;38812;50.942;3.644;2023-07-31T10:30:16;7.72;;;3.97;;
52948;SDS011;38812;50.942;3.644;2023-07-31T10:32:44;5.45;;;3.33;;
52948;SDS011;38812;50.942;3.644;2023-07-31T10:35:10;6.13;;;3.13;;
52948;SDS011;38812;50.942;3.644;2023-07-31T10:37:38;9.98;;;7.30;;
52948;SDS011;38812;50.942;3.644;2023-07-31T10:40:11;9.38;;;3.78;;
52948;SDS011;38812;50.942;3.644;2023-07-31T10:45:12;8.63;;;3.95;;
52948;SDS011;38812;50.942;3.644;2023-07-31T10:47:45;9.20;;;3.58;;
52948;SDS011;38812;50.942;3.644;2023-07-31T10:50:11;7.97;;;3.30;;
52948;SDS011;38812;50.942;3.644;2023-07-31T10:52:37;6.05;;;3.83;;
52948;SDS011;38812;50.942;3.644;2023-07-31T10:55:16;13.82;;;3.50;;
52948;SDS011;38812;50.942;3.644;2023-07-31T10:58:07;8.23;;;3.60;;
52948;SDS011;38812;50.942;3.644;2023-07-31T11:00:34;8.23;;;3.70;;
52948;SDS011;38812;50.942;3.644;2023-07-31T11:03:06;3.92;;;3.28;;
52948;SDS011;38812;50.942;3.644;2023-07-31T11:13:32;6.50;;;3.55;;
52948;SDS011;38812;50.942;3.644;2023-07-31T11:16:04;5.55;;;3.25;;
52948;SDS011;38812;50.942;3.644;2023-07-31T11:18:29;8.50;;;3.47;;
52948;SDS011;38812;50.942;3.644;2023-07-31T11:20:54;9.38;;;3.50;;
52948;SDS011;38812;50.942;3.644;2023-07-31T11:23:21;6.88;;;3.17;;
52948;SDS011;38812;50.942;3.644;2023-07-31T11:25:47;6.30;;;3.15;;
52948;SDS011;38812;50.942;3.644;2023-07-31T11:28:14;6.47;;;3.15;;
52948;SDS011;38812;50.942;3.644;2023-07-31T11:30:40;6.75;;;3.30;;
52948;SDS011;38812;50.942;3.644;2023-07-31T11:33:08;10.45;;;3.08;;
52948;SDS011;38812;50.942;3.644;2023-07-31T11:35:35;6.10;;;3.17;;
52948;SDS011;38812;50.942;3.644;2023-07-31T11:38:06;8.13;;;3.78;;
52948;SDS011;38812;50.942;3.644;2023-07-31T11:40:40;9.55;;;2.78;;
52948;SDS011;38812;50.942;3.644;2023-07-31T11:43:06;8.75;;;3.30;;
52948;SDS011;38812;50.942;3.644;2023-07-31T11:45:32;9.57;;;3.85;;
52948;SDS011;38812;50.942;3.644;2023-07-31T11:48:00;5.25;;;3.20;;
52948;SDS011;38812;50.942;3.644;2023-07-31T11:50:26;6.25;;;3.35;;
52948;SDS011;38812;50.942;3.644;2023-07-31T11:52:57;6.57;;;3.42;;
52948;SDS011;38812;50.942;3.644;2023-07-31T11:55:25;8.68;;;4.53;;
52948;SDS011;38812;50.942;3.644;2023-07-31T11:57:52;5.65;;;3.38;;
52948;SDS011;38812;50.942;3.644;2023-07-31T12:00:19;8.93;;;3.95;;
52948;SDS011;38812;50.942;3.644;2023-07-31T12:02:45;9.57;;;3.75;;
52948;SDS011;38812;50.942;3.644;2023-07-31T12:05:14;9.88;;;2.88;;
52948;SDS011;38812;50.942;3.644;2023-07-31T12:07:50;9.32;;;3.67;;
52948;SDS011;38812;50.942;3.644;2023-07-31T12:12:59;12.07;;;4.43;;
52948;SDS011;38812;50.942;3.644;2023-07-31T12:15:32;11.98;;;3.72;;
52948;SDS011;38812;50.942;3.644;2023-07-31T12:17:58;8.13;;;4.07;;
52948;SDS011;38812;50.942;3.644;2023-07-31T12:20:24;8.40;;;4.32;;
52948;SDS011;38812;50.942;3.644;2023-07-31T12:22:51;9.30;;;4.63;;
52948;SDS011;38812;50.942;3.644;2023-07-31T12:25:16;6.97;;;4.18;;
52948;SDS011;38812;50.942;3.644;2023-07-31T12:27:44;8.43;;;4.28;;
52948;SDS011;38812;50.942;3.644;2023-07-31T12:32:53;6.93;;;4.00;;
52948;SDS011;38812;50.942;3.644;2023-07-31T12:35:19;10.18;;;3.55;;
52948;SDS011;38812;50.942;3.644;2023-07-31T12:37:44;7.22;;;3.53;;
52948;SDS011;38812;50.942;3.644;2023-07-31T12:40:10;5.90;;;3.85;;
52948;SDS011;38812;50.942;3.644;2023-07-31T12:42:36;7.47;;;4.15;;
52948;SDS011;38812;50.942;3.644;2023-07-31T12:45:01;7.40;;;3.92;;
52948;SDS011;38812;50.942;3.644;2023-07-31T12:47:27;5.95;;;3.15;;
52948;SDS011;38812;50.942;3.644;2023-07-31T12:49:52;9.40;;;3.80;;
52948;SDS011;38812;50.942;3.644;2023-07-31T12:52:17;8.15;;;3.00;;
52948;SDS011;38812;50.942;3.644;2023-07-31T12:54:43;9.63;;;3.15;;
52948;SDS011;38812;50.942;3.644;2023-07-31T12:57:08;7.10;;;3.05;;
52948;SDS011;38812;50.942;3.644;2023-07-31T12:59:34;6.45;;;3.30;;
52948;SDS011;38812;50.942;3.644;2023-07-31T13:01:59;8.93;;;3.80;;
52948;SDS011;38812;50.942;3.644;2023-07-31T13:04:24;8.88;;;3.30;;
52948;SDS011;38812;50.942;3.644;2023-07-31T13:06:50;5.07;;;3.22;;
52948;SDS011;38812;50.942;3.644;2023-07-31T13:09:15;5.93;;;2.70;;
52948;SDS011;38812;50.942;3.644;2023-07-31T13:11:42;3.55;;;2.17;;
52948;SDS011;38812;50.942;3.644;2023-07-31T13:14:08;7.63;;;2.20;;
52948;SDS011;38812;50.942;3.644;2023-07-31T13:16:33;4.13;;;1.70;;
52948;SDS011;38812;50.942;3.644;2023-07-31T13:18:59;3.35;;;1.52;;
52948;SDS011;38812;50.942;3.644;2023-07-31T13:21:24;2.28;;;1.77;;
52948;SDS011;38812;50.942;3.644;2023-07-31T13:23:49;4.50;;;2.17;;
52948;SDS011;38812;50.942;3.644;2023-07-31T13:26:15;3.20;;;1.92;;
52948;SDS011;38812;50.942;3.644;2023-07-31T13:28:40;2.90;;;1.70;;
52948;SDS011;38812;50.942;3.644;2023-07-31T13:31:05;2.55;;;1.58;;
52948;SDS011;38812;50.942;3.644;2023-07-31T13:33:31;3.28;;;2.10;;
52948;SDS011;38812;50.942;3.644;2023-07-31T13:35:56;9.25;;;2.40;;
52948;SDS011;38812;50.942;3.644;2023-07-31T13:38:21;2.55;;;1.73;;
52948;SDS011;38812;50.942;3.644;2023-07-31T13:40:47;6.90;;;3.30;;
52948;SDS011;38812;50.942;3.644;2023-07-31T13:43:12;5.28;;;2.28;;
52948;SDS011;38812;50.942;3.644;2023-07-31T13:45:38;6.55;;;2.70;;
52948;SDS011;38812;50.942;3.644;2023-07-31T13:48:03;5.57;;;3.10;;
52948;SDS011;38812;50.942;3.644;2023-07-31T13:50:29;5.35;;;2.70;;
52948;SDS011;38812;50.942;3.644;2023-07-31T13:52:54;5.45;;;3.00;;
52948;SDS011;38812;50.942;3.644;2023-07-31T13:55:20;6.30;;;2.85;;
52948;SDS011;38812;50.942;3.644;2023-07-31T13:57:45;6.47;;;3.05;;
52948;SDS011;38812;50.942;3.644;2023-07-31T14:00:11;5.20;;;2.97;;
52948;SDS011;38812;50.942;3.644;2023-07-31T14:02:37;6.75;;;3.38;;
52948;SDS011;38812;50.942;3.644;2023-07-31T14:05:02;6.63;;;2.65;;
52948;SDS011;38812;50.942;3.644;2023-07-31T14:07:28;8.48;;;4.13;;
52948;SDS011;38812;50.942;3.644;2023-07-31T14:09:54;7.45;;;2.92;;
52948;SDS011;38812;50.942;3.644;2023-07-31T14:12:19;7.68;;;3.72;;
52948;SDS011;38812;50.942;3.644;2023-07-31T14:14:44;4.43;;;2.60;;
52948;SDS011;38812;50.942;3.644;2023-07-31T14:17:10;8.15;;;2.67;;
52948;SDS011;38812;50.942;3.644;2023-07-31T14:19:35;5.43;;;2.15;;
52948;SDS011;38812;50.942;3.644;2023-07-31T14:22:01;4.38;;;2.05;;
52948;SDS011;38812;50.942;3.644;2023-07-31T14:24:26;4.82;;;2.60;;
52948;SDS011;38812;50.942;3.644;2023-07-31T14:26:52;4.18;;;2.42;;
52948;SDS011;38812;50.942;3.644;2023-07-31T14:29:17;3.80;;;1.98;;
52948;SDS011;38812;50.942;3.644;2023-07-31T14:31:42;6.40;;;1.83;;
52948;SDS011;38812;50.942;3.644;2023-07-31T14:34:08;3.90;;;1.92;;
52948;SDS011;38812;50.942;3.644;2023-07-31T14:36:33;2.58;;;1.60;;
52948;SDS011;38812;50.942;3.644;2023-07-31T14:38:58;5.13;;;2.15;;
52948;SDS011;38812;50.942;3.644;2023-07-31T14:41:24;2.50;;;1.55;;
52948;SDS011;38812;50.942;3.644;2023-07-31T14:43:49;3.80;;;1.60;;
52948;SDS011;38812;50.942;3.644;2023-07-31T14:46:14;4.20;;;2.00;;
52948;SDS011;38812;50.942;3.644;2023-07-31T14:48:40;5.22;;;1.77;;
52948;SDS011;38812;50.942;3.644;2023-07-31T14:51:05;5.65;;;2.08;;
52948;SDS011;38812;50.942;3.644;2023-07-31T14:53:31;5.20;;;1.65;;
52948;SDS011;38812;50.942;3.644;2023-07-31T14:55:56;3.65;;;1.50;;
52948;SDS011;38812;50.942;3.644;2023-07-31T14:58:22;3.25;;;1.48;;
52948;SDS011;38812;50.942;3.644;2023-07-31T15:00:47;2.13;;;1.58;;
52948;SDS011;38812;50.942;3.644;2023-07-31T15:03:13;2.60;;;1.58;;
52948;SDS011;38812;50.942;3.644;2023-07-31T15:05:38;2.10;;;1.45;;